createdAt,value
2023-01-27T00:00:51.775Z,0.30
2023-01-27T00:03:20.070Z,0.34
2023-01-27T00:05:47.753Z,0.39
2023-01-27T00:08:18.106Z,0.40
2023-01-27T00:10:45.683Z,0.40
2023-01-27T00:13:28.565Z,0.42
2023-01-27T00:15:57.420Z,0.43
2023-01-27T00:18:25.744Z,0.40
2023-01-27T00:21:11.069Z,0.38
2023-01-27T00:23:56.390Z,0.32
2023-01-27T00:26:24.355Z,0.26
2023-01-27T00:28:51.854Z,0.25
2023-01-27T00:31:38.485Z,0.27
2023-01-27T00:34:10.088Z,0.24
2023-01-27T00:36:39.342Z,0.22
2023-01-27T00:39:08.128Z,0.21
2023-01-27T00:41:36.091Z,0.15
2023-01-27T00:44:05.502Z,0.13
2023-01-27T00:46:34.814Z,0.09
2023-01-27T00:49:02.548Z,0.10
2023-01-27T00:51:30.012Z,0.13
2023-01-27T00:53:59.199Z,0.15
2023-01-27T00:56:28.148Z,0.18
2023-01-27T00:58:55.767Z,0.21
2023-01-27T01:01:23.324Z,0.20
2023-01-27T01:03:52.301Z,0.18
2023-01-27T01:06:20.685Z,0.18
2023-01-27T01:08:48.513Z,0.19
2023-01-27T01:11:17.535Z,0.20
2023-01-27T01:13:45.847Z,0.28
2023-01-27T01:16:16.970Z,0.32
2023-01-27T01:18:44.886Z,0.36
2023-01-27T01:21:14.970Z,0.35
2023-01-27T01:23:44.525Z,0.35
2023-01-27T01:26:13.221Z,0.35
2023-01-27T01:28:40.814Z,0.31
2023-01-27T01:31:10.019Z,0.32
2023-01-27T01:33:38.254Z,0.33
2023-01-27T01:36:07.252Z,0.30
2023-01-27T01:38:36.282Z,0.29
2023-01-27T01:41:04.033Z,0.27
2023-01-27T01:43:31.582Z,0.29
2023-01-27T01:45:59.579Z,0.32
2023-01-27T01:48:33.369Z,0.36
2023-01-27T01:51:05.845Z,0.35
2023-01-27T01:53:39.433Z,0.34
2023-01-27T01:56:13.110Z,0.35
2023-01-27T02:01:16.113Z,0.34
2023-01-27T02:03:48.033Z,0.32
2023-01-27T02:06:15.719Z,0.32
2023-01-27T02:08:47.161Z,0.32
2023-01-27T02:11:14.794Z,0.30
2023-01-27T02:13:44.115Z,0.24
2023-01-27T02:16:12.452Z,0.19
2023-01-27T02:18:42.081Z,0.18
2023-01-27T02:21:10.416Z,0.17
2023-01-27T02:23:49.160Z,0.17
2023-01-27T02:26:21.125Z,0.20
2023-01-27T02:28:55.078Z,0.23
2023-01-27T02:31:22.994Z,0.25
2023-01-27T02:33:50.890Z,0.30
2023-01-27T02:36:19.202Z,0.36
2023-01-27T02:38:48.806Z,0.41
2023-01-27T02:41:22.307Z,0.38
2023-01-27T02:43:50.393Z,0.32
2023-01-27T02:46:18.097Z,0.29
2023-01-27T02:48:45.727Z,0.31
2023-01-27T02:51:13.467Z,0.32
2023-01-27T02:53:41.095Z,0.31
2023-01-27T02:56:08.895Z,0.28
2023-01-27T02:58:37.788Z,0.25
2023-01-27T03:01:05.746Z,0.24
2023-01-27T03:03:33.257Z,0.23
2023-01-27T03:06:00.857Z,0.19
2023-01-27T03:08:28.489Z,0.18
2023-01-27T03:10:56.615Z,0.13
2023-01-27T03:13:25.101Z,0.10
2023-01-27T03:16:13.535Z,0.04
2023-01-27T03:18:47.401Z,-0.01
2023-01-27T03:21:15.520Z,-0.02
2023-01-27T03:23:45.651Z,-0.04
2023-01-27T03:26:13.641Z,-0.06
2023-01-27T03:28:41.156Z,-0.05
2023-01-27T03:31:19.432Z,-0.06
2023-01-27T03:33:47.603Z,-0.09
2023-01-27T03:36:32.731Z,-0.14
2023-01-27T03:39:18.182Z,-0.18
2023-01-27T03:42:03.558Z,-0.20
2023-01-27T03:44:48.791Z,-0.19
2023-01-27T03:47:17.635Z,-0.22
2023-01-27T03:49:45.107Z,-0.24
2023-01-27T03:52:12.577Z,-0.24
2023-01-27T03:54:40.048Z,-0.24
2023-01-27T03:57:07.513Z,-0.21
2023-01-27T03:59:35.076Z,-0.21
2023-01-27T04:02:20.999Z,-0.21
2023-01-27T04:05:07.606Z,-0.22
2023-01-27T04:07:35.790Z,-0.22
2023-01-27T04:10:03.361Z,-0.25
2023-01-27T04:12:29.878Z,-0.26
2023-01-27T04:14:57.844Z,-0.26
2023-01-27T04:17:25.333Z,-0.25
2023-01-27T04:19:54.187Z,-0.26
2023-01-27T04:22:21.722Z,-0.27
2023-01-27T04:24:50.113Z,-0.29
2023-01-27T04:27:18.866Z,-0.29
2023-01-27T04:29:46.323Z,-0.29
2023-01-27T04:32:15.179Z,-0.31
2023-01-27T04:34:43.143Z,-0.31
2023-01-27T04:37:12.105Z,-0.31
2023-01-27T04:39:39.601Z,-0.29
2023-01-27T04:42:07.169Z,-0.29
2023-01-27T04:44:34.659Z,-0.29
2023-01-27T04:47:02.198Z,-0.30
2023-01-27T04:49:29.734Z,-0.32
2023-01-27T04:51:57.280Z,-0.33
2023-01-27T04:54:26.111Z,-0.36
2023-01-27T04:56:57.372Z,-0.40
2023-01-27T04:59:24.956Z,-0.45
2023-01-27T05:01:52.999Z,-0.47
2023-01-27T05:04:20.535Z,-0.47
2023-01-27T05:06:48.060Z,-0.45
2023-01-27T05:09:15.663Z,-0.42
2023-01-27T05:11:44.507Z,-0.42
2023-01-27T05:14:13.866Z,-0.42
2023-01-27T05:16:41.442Z,-0.40
2023-01-27T05:19:09.710Z,-0.40
2023-01-27T05:21:37.364Z,-0.40
2023-01-27T05:24:05.403Z,-0.44
2023-01-27T05:26:32.921Z,-0.43
2023-01-27T05:29:01.768Z,-0.44
2023-01-27T05:31:31.502Z,-0.42
2023-01-27T05:34:00.750Z,-0.42
2023-01-27T05:36:28.804Z,-0.40
2023-01-27T05:38:57.098Z,-0.41
2023-01-27T05:41:24.643Z,-0.39
2023-01-27T05:43:53.834Z,-0.39
2023-01-27T05:46:24.702Z,-0.34
2023-01-27T05:48:54.089Z,-0.29
2023-01-27T05:51:23.683Z,-0.23
2023-01-27T05:53:51.619Z,-0.21
2023-01-27T05:56:20.023Z,-0.18
2023-01-27T05:58:47.988Z,-0.18
2023-01-27T06:01:16.954Z,-0.22
2023-01-27T06:03:47.135Z,-0.22
2023-01-27T06:06:17.113Z,-0.22
2023-01-27T06:08:45.556Z,-0.17
2023-01-27T06:11:13.350Z,-0.15
2023-01-27T06:13:41.227Z,-0.21
2023-01-27T06:16:11.217Z,-0.28
2023-01-27T06:18:39.936Z,-0.32
2023-01-27T06:21:10.987Z,-0.37
2023-01-27T06:23:39.280Z,-0.37
2023-01-27T06:26:10.473Z,-0.39
2023-01-27T06:28:38.037Z,-0.40
2023-01-27T06:31:07.532Z,-0.39
2023-01-27T06:33:35.085Z,-0.35
2023-01-27T06:36:03.596Z,-0.33
2023-01-27T06:38:32.499Z,-0.30
2023-01-27T06:41:01.127Z,-0.30
2023-01-27T06:43:28.920Z,-0.29
2023-01-27T06:45:57.510Z,-0.27
2023-01-27T06:48:25.470Z,-0.26
2023-01-27T06:50:53.989Z,-0.26
2023-01-27T06:53:21.839Z,-0.29
2023-01-27T06:55:56.370Z,-0.31
2023-01-27T06:58:23.928Z,-0.26
2023-01-27T07:00:51.971Z,-0.17
2023-01-27T07:03:19.687Z,-0.09
2023-01-27T07:05:47.247Z,0.01
2023-01-27T07:08:14.773Z,0.07
2023-01-27T07:10:42.383Z,0.11
2023-01-27T07:13:13.494Z,0.17
2023-01-27T07:15:41.690Z,0.15
2023-01-27T07:18:09.310Z,0.11
2023-01-27T07:20:36.841Z,0.08
2023-01-27T07:23:06.155Z,0.06
2023-01-27T07:25:35.464Z,0.03
2023-01-27T07:28:03.988Z,-0.03
2023-01-27T07:30:34.296Z,-0.03
2023-01-27T07:33:05.433Z,-0.03
2023-01-27T07:35:32.953Z,-0.03
2023-01-27T07:38:00.565Z,-0.04
2023-01-27T07:40:28.055Z,-0.02
2023-01-27T07:42:59.137Z,-0.03
2023-01-27T07:45:26.792Z,-0.07
2023-01-27T07:48:01.144Z,-0.11
2023-01-27T07:50:28.798Z,-0.11
2023-01-27T07:52:59.663Z,-0.10
2023-01-27T07:55:27.225Z,-0.08
2023-01-27T07:57:55.231Z,-0.10
2023-01-27T08:00:23.221Z,-0.14
2023-01-27T08:02:51.576Z,-0.16
2023-01-27T08:05:22.487Z,-0.14
2023-01-27T08:07:50.529Z,-0.15
2023-01-27T08:10:18.822Z,-0.17
2023-01-27T08:12:47.016Z,-0.17
2023-01-27T08:15:16.576Z,-0.18
2023-01-27T08:17:45.862Z,-0.15
2023-01-27T08:20:14.182Z,-0.13
2023-01-27T08:22:43.656Z,-0.15
2023-01-27T08:25:11.202Z,-0.14
2023-01-27T08:27:38.807Z,-0.14
2023-01-27T08:30:07.269Z,-0.15
2023-01-27T08:32:35.272Z,-0.16
2023-01-27T08:35:03.000Z,-0.19
2023-01-27T08:37:30.494Z,-0.21
2023-01-27T08:39:59.389Z,-0.24
2023-01-27T08:42:27.054Z,-0.26
2023-01-27T08:44:54.638Z,-0.25
2023-01-27T08:47:22.248Z,-0.23
2023-01-27T08:49:49.806Z,-0.22
2023-01-27T08:52:17.323Z,-0.24
2023-01-27T08:54:44.817Z,-0.25
2023-01-27T08:57:13.756Z,-0.25
2023-01-27T08:59:41.314Z,-0.27
2023-01-27T09:02:10.911Z,-0.28
2023-01-27T09:04:41.947Z,-0.30
2023-01-27T09:07:09.497Z,-0.26
2023-01-27T09:09:37.038Z,-0.22
2023-01-27T09:12:04.779Z,-0.19
2023-01-27T09:14:33.683Z,-0.17
2023-01-27T09:17:01.191Z,-0.18
2023-01-27T09:19:28.747Z,-0.14
2023-01-27T09:21:56.375Z,-0.12
2023-01-27T09:24:24.145Z,-0.12
2023-01-27T09:26:51.738Z,-0.11
2023-01-27T09:29:19.349Z,-0.08
2023-01-27T09:31:48.351Z,-0.07
2023-01-27T09:34:17.720Z,-0.05
2023-01-27T09:36:50.509Z,-0.03
2023-01-27T09:39:18.720Z,-0.02
2023-01-27T09:42:08.540Z,-0.06
2023-01-27T09:45:00.558Z,-0.05
2023-01-27T09:47:51.972Z,-0.06
2023-01-27T09:50:38.180Z,-0.03
2023-01-27T09:53:26.623Z,0.03
2023-01-27T09:55:59.428Z,0.04
2023-01-27T09:58:33.381Z,0.09
2023-01-27T10:01:12.134Z,0.05
2023-01-27T10:04:19.406Z,0.04
2023-01-27T10:06:57.327Z,0.04
2023-01-27T10:09:57.617Z,0.03
2023-01-27T10:12:35.696Z,0.02
2023-01-27T10:15:17.821Z,0.04
2023-01-27T10:17:52.468Z,0.08
2023-01-27T10:20:30.471Z,0.09
2023-01-27T10:23:10.207Z,0.08
2023-01-27T10:25:53.060Z,0.05
2023-01-27T10:28:24.281Z,0.03
2023-01-27T10:30:59.871Z,-0.01
2023-01-27T10:33:39.371Z,-0.03
2023-01-27T10:36:17.744Z,-0.05
2023-01-27T10:38:50.366Z,-0.02
2023-01-27T10:41:29.788Z,0.02
2023-01-27T10:44:15.301Z,0.06
2023-01-27T10:46:53.837Z,0.09
2023-01-27T10:49:25.864Z,0.12
2023-01-27T10:51:59.274Z,0.16
2023-01-27T10:54:33.921Z,0.15
2023-01-27T10:57:07.223Z,0.16
2023-01-27T10:59:41.111Z,0.15
2023-01-27T11:02:18.712Z,0.12
2023-01-27T11:04:49.513Z,0.11
2023-01-27T11:07:20.537Z,0.11
2023-01-27T11:09:54.460Z,0.14
2023-01-27T11:12:30.321Z,0.19
2023-01-27T11:14:59.495Z,0.23
2023-01-27T11:17:31.933Z,0.29
2023-01-27T11:20:06.134Z,0.33
2023-01-27T11:22:40.949Z,0.33
2023-01-27T11:25:24.264Z,0.38
2023-01-27T11:28:13.768Z,0.43
2023-01-27T11:30:49.478Z,0.48
2023-01-27T11:33:22.593Z,0.53
2023-01-27T11:35:51.243Z,0.58
2023-01-27T11:38:23.358Z,0.61
2023-01-27T11:40:52.820Z,0.60
2023-01-27T11:43:24.749Z,0.59
2023-01-27T11:45:56.387Z,0.57
2023-01-27T11:48:23.975Z,0.56
2023-01-27T11:50:51.676Z,0.57
2023-01-27T11:53:27.646Z,0.60
2023-01-27T11:55:58.267Z,0.64
2023-01-27T11:58:28.471Z,0.61
2023-01-27T12:00:58.263Z,0.59
2023-01-27T12:03:40.414Z,0.61
2023-01-27T12:06:15.805Z,0.66
2023-01-27T12:08:46.201Z,0.65
2023-01-27T12:11:19.644Z,0.64
2023-01-27T12:13:52.346Z,0.61
2023-01-27T12:16:20.594Z,0.60
2023-01-27T12:18:53.830Z,0.58
2023-01-27T12:21:24.293Z,0.54
2023-01-27T12:23:56.691Z,0.53
2023-01-27T12:26:35.361Z,0.55
2023-01-27T12:29:07.131Z,0.57
2023-01-27T12:31:45.578Z,0.57
2023-01-27T12:34:27.382Z,0.59
2023-01-27T12:36:56.268Z,0.63
2023-01-27T12:39:42.971Z,0.64
2023-01-27T12:42:36.571Z,0.68
2023-01-27T12:45:26.492Z,0.68
2023-01-27T12:48:15.913Z,0.64
2023-01-27T12:50:54.233Z,0.60
2023-01-27T12:53:25.506Z,0.56
2023-01-27T12:55:59.838Z,0.55
2023-01-27T12:58:36.833Z,0.55
2023-01-27T13:01:07.159Z,0.55
2023-01-27T13:03:41.119Z,0.56
2023-01-27T13:06:09.542Z,0.59
2023-01-27T13:08:41.365Z,0.64
2023-01-27T13:11:11.176Z,0.69
2023-01-27T13:13:47.974Z,0.73
2023-01-27T13:16:19.090Z,0.73
2023-01-27T13:18:54.637Z,0.72
2023-01-27T13:21:26.519Z,0.75
2023-01-27T13:23:56.524Z,0.80
2023-01-27T13:26:29.090Z,0.82
2023-01-27T13:29:00.734Z,0.83
2023-01-27T13:31:44.182Z,0.87
2023-01-27T13:34:23.310Z,0.85
2023-01-27T13:36:56.425Z,0.80
2023-01-27T13:39:44.308Z,0.78
2023-01-27T13:42:20.421Z,0.80
2023-01-27T13:44:56.005Z,0.79
2023-01-27T13:47:26.936Z,0.78
2023-01-27T13:49:59.737Z,0.76
2023-01-27T13:52:27.226Z,0.78
2023-01-27T13:54:55.005Z,0.74
2023-01-27T13:57:45.911Z,0.65
2023-01-27T14:00:21.569Z,0.61
2023-01-27T14:03:14.409Z,0.58
2023-01-27T14:05:55.514Z,0.60
2023-01-27T14:08:46.780Z,0.61
2023-01-27T14:11:23.819Z,0.64
2023-01-27T14:14:15.226Z,0.66
2023-01-27T14:16:57.386Z,0.67
2023-01-27T14:19:37.371Z,0.65
2023-01-27T14:22:12.862Z,0.66
2023-01-27T14:24:46.732Z,0.70
2023-01-27T14:27:19.132Z,0.74
2023-01-27T14:29:54.712Z,0.75
2023-01-27T14:32:30.553Z,0.72
2023-01-27T14:35:15.491Z,0.70
2023-01-27T14:37:52.549Z,0.71
2023-01-27T14:40:24.010Z,0.74
2023-01-27T14:43:11.636Z,0.76
2023-01-27T14:45:45.805Z,0.80
2023-01-27T14:48:24.207Z,0.81
2023-01-27T14:51:00.494Z,0.83
2023-01-27T14:53:46.151Z,0.85
2023-01-27T14:56:21.540Z,0.86
2023-01-27T14:58:56.669Z,0.85
2023-01-27T15:01:34.692Z,0.82
2023-01-27T15:04:26.551Z,0.80
2023-01-27T15:06:57.568Z,0.76
2023-01-27T15:09:41.733Z,0.70
2023-01-27T15:12:29.946Z,0.67
2023-01-27T15:15:26.723Z,0.63
2023-01-27T15:18:12.315Z,0.63
2023-01-27T15:20:56.753Z,0.61
2023-01-27T15:23:53.851Z,0.61
2023-01-27T15:26:25.811Z,0.59
2023-01-27T15:28:54.502Z,0.57
2023-01-27T15:31:26.371Z,0.51
2023-01-27T15:34:16.895Z,0.50
2023-01-27T15:37:03.186Z,0.50
2023-01-27T15:39:40.854Z,0.50
2023-01-27T15:42:12.255Z,0.50
2023-01-27T15:44:42.624Z,0.50
2023-01-27T15:47:13.682Z,0.53
2023-01-27T15:49:46.628Z,0.51
2023-01-27T15:52:26.555Z,0.46
2023-01-27T15:54:56.133Z,0.45
2023-01-27T15:57:28.643Z,0.45
2023-01-27T16:00:02.077Z,0.46
2023-01-27T16:02:31.911Z,0.48
2023-01-27T16:05:09.193Z,0.48
2023-01-27T16:07:39.564Z,0.54
2023-01-27T16:10:14.223Z,0.58
2023-01-27T16:12:44.997Z,0.58
2023-01-27T16:15:23.970Z,0.53
2023-01-27T16:18:01.113Z,0.48
2023-01-27T16:20:32.487Z,0.45
2023-01-27T16:23:03.982Z,0.44
2023-01-27T16:25:40.741Z,0.43
2023-01-27T16:28:15.745Z,0.40
2023-01-27T16:30:49.763Z,0.38
2023-01-27T16:33:23.292Z,0.37
2023-01-27T16:35:55.020Z,0.39
2023-01-27T16:38:27.403Z,0.39
2023-01-27T16:40:58.088Z,0.40
2023-01-27T16:43:31.567Z,0.37
2023-01-27T16:46:01.671Z,0.36
2023-01-27T16:48:35.128Z,0.35
2023-01-27T16:51:19.427Z,0.35
2023-01-27T16:53:49.410Z,0.32
2023-01-27T16:56:21.728Z,0.32
2023-01-27T16:58:51.061Z,0.31
2023-01-27T17:01:26.680Z,0.33
2023-01-27T17:04:00.617Z,0.36
2023-01-27T17:06:32.631Z,0.37
2023-01-27T17:09:01.044Z,0.37
2023-01-27T17:11:32.766Z,0.37
2023-01-27T17:14:02.356Z,0.41
2023-01-27T17:16:34.545Z,0.45
2023-01-27T17:19:11.732Z,0.49
2023-01-27T17:21:43.328Z,0.51
2023-01-27T17:24:20.260Z,0.50
2023-01-27T17:26:53.981Z,0.46
2023-01-27T17:29:23.650Z,0.46
2023-01-27T17:31:52.128Z,0.44
2023-01-27T17:34:21.818Z,0.41
2023-01-27T17:37:15.891Z,0.36
2023-01-27T17:39:44.608Z,0.35
2023-01-27T17:42:15.588Z,0.35
2023-01-27T17:44:43.160Z,0.37
2023-01-27T17:47:14.672Z,0.38
2023-01-27T17:49:43.760Z,0.40
2023-01-27T17:52:16.746Z,0.43
2023-01-27T17:54:46.884Z,0.43
2023-01-27T17:57:21.447Z,0.40
2023-01-27T17:59:59.109Z,0.43
2023-01-27T18:02:29.931Z,0.45
2023-01-27T18:05:00.428Z,0.47
2023-01-27T18:07:28.628Z,0.48
2023-01-27T18:09:58.013Z,0.49
2023-01-27T18:12:33.947Z,0.49
2023-01-27T18:15:42.124Z,0.54
2023-01-27T18:18:23.694Z,0.61
2023-01-27T18:21:03.004Z,0.69
2023-01-27T18:23:34.104Z,0.74
2023-01-27T18:26:18.087Z,0.73
2023-01-27T18:28:46.975Z,0.77
2023-01-27T18:31:21.371Z,0.81
2023-01-27T18:33:57.666Z,0.89
2023-01-27T18:36:33.271Z,0.93
2023-01-27T18:39:00.948Z,0.96
2023-01-27T18:41:32.574Z,0.96
2023-01-27T18:44:01.523Z,0.99
2023-01-27T18:46:29.343Z,1.00
2023-01-27T18:48:59.573Z,1.00
2023-01-27T18:51:27.159Z,0.98
2023-01-27T18:53:54.697Z,0.98
2023-01-27T18:56:22.247Z,1.00
2023-01-27T18:58:54.020Z,1.02
2023-01-27T19:01:23.955Z,1.05
2023-01-27T19:03:52.286Z,1.05
2023-01-27T19:06:19.897Z,1.08
2023-01-27T19:08:48.861Z,1.10
2023-01-27T19:11:17.383Z,1.10
2023-01-27T19:13:46.069Z,1.12
2023-01-27T19:16:17.067Z,1.12
2023-01-27T19:18:46.147Z,1.12
2023-01-27T19:21:15.540Z,1.13
2023-01-27T19:23:44.742Z,1.13
2023-01-27T19:26:17.716Z,1.11
2023-01-27T19:28:46.211Z,1.14
2023-01-27T19:31:15.461Z,1.08
2023-01-27T19:33:44.791Z,1.03
2023-01-27T19:36:20.809Z,1.00
2023-01-27T19:38:49.044Z,0.99
2023-01-27T19:41:16.778Z,0.97
2023-01-27T19:43:47.144Z,0.93
2023-01-27T19:46:23.205Z,0.97
2023-01-27T19:48:51.807Z,0.99
2023-01-27T19:51:20.083Z,0.95
2023-01-27T19:53:47.617Z,0.92
2023-01-27T19:56:17.035Z,0.90
2023-01-27T19:58:47.146Z,0.89
2023-01-27T20:01:16.156Z,0.88
2023-01-27T20:03:43.789Z,0.86
2023-01-27T20:06:16.661Z,0.88
2023-01-27T20:08:44.120Z,0.94
2023-01-27T20:11:33.358Z,0.92
2023-01-27T20:14:01.914Z,0.89
2023-01-27T20:16:30.890Z,0.85
2023-01-27T20:19:00.105Z,0.80
2023-01-27T20:21:28.758Z,0.77
2023-01-27T20:23:56.278Z,0.77
2023-01-27T20:26:23.942Z,0.79
2023-01-27T20:28:51.601Z,0.81
2023-01-27T20:31:22.513Z,0.80
2023-01-27T20:33:52.188Z,0.79
2023-01-27T20:36:22.575Z,0.75
2023-01-27T20:38:51.293Z,0.72
2023-01-27T20:41:21.238Z,0.71
2023-01-27T20:43:49.195Z,0.72
2023-01-27T20:46:20.793Z,0.70
2023-01-27T20:48:48.382Z,0.73
2023-01-27T20:51:17.657Z,0.74
2023-01-27T20:53:46.097Z,0.77
2023-01-27T20:56:14.960Z,0.83
2023-01-27T20:58:42.871Z,0.85
2023-01-27T21:01:12.119Z,0.81
2023-01-27T21:03:40.553Z,0.80
2023-01-27T21:06:09.429Z,0.78
2023-01-27T21:08:38.579Z,0.74
2023-01-27T21:11:10.854Z,0.72
2023-01-27T21:13:38.619Z,0.71
2023-01-27T21:16:07.090Z,0.70
2023-01-27T21:18:34.678Z,0.71
2023-01-27T21:21:04.074Z,0.71
2023-01-27T21:23:33.460Z,0.69
2023-01-27T21:26:05.371Z,0.65
2023-01-27T21:28:33.468Z,0.61
2023-01-27T21:31:06.215Z,0.59
2023-01-27T21:33:35.898Z,0.54
2023-01-27T21:36:03.680Z,0.51
2023-01-27T21:38:32.389Z,0.49
2023-01-27T21:41:06.061Z,0.49
2023-01-27T21:43:51.258Z,0.49
2023-01-27T21:46:19.051Z,0.48
2023-01-27T21:48:46.700Z,0.47
2023-01-27T21:51:14.196Z,0.47
2023-01-27T21:53:42.407Z,0.45
2023-01-27T21:56:12.008Z,0.44
2023-01-27T21:58:40.225Z,0.43
2023-01-27T22:01:08.591Z,0.46
2023-01-27T22:03:38.181Z,0.47
2023-01-27T22:06:06.841Z,0.49
2023-01-27T22:08:34.502Z,0.50
2023-01-27T22:11:05.718Z,0.55
2023-01-27T22:13:37.410Z,0.61
2023-01-27T22:16:05.894Z,0.66
2023-01-27T22:18:33.521Z,0.70
2023-01-27T22:21:02.283Z,0.74
2023-01-27T22:23:30.013Z,0.75
2023-01-27T22:25:57.661Z,0.71
2023-01-27T22:28:26.496Z,0.67
2023-01-27T22:30:55.437Z,0.65
2023-01-27T22:33:22.940Z,0.63
2023-01-27T22:35:59.560Z,0.61
2023-01-27T22:38:27.083Z,0.61
2023-01-27T22:40:58.557Z,0.63
2023-01-27T22:43:26.071Z,0.65
2023-01-27T22:45:55.009Z,0.66
2023-01-27T22:48:22.539Z,0.65
2023-01-27T22:50:50.058Z,0.63
2023-01-27T22:53:17.608Z,0.62
2023-01-27T22:55:45.107Z,0.64
2023-01-27T22:58:12.703Z,0.64
2023-01-27T23:00:40.195Z,0.61
2023-01-27T23:03:09.048Z,0.64
2023-01-27T23:05:36.612Z,0.64
2023-01-27T23:08:04.219Z,0.63
2023-01-27T23:10:31.728Z,0.67
2023-01-27T23:12:59.239Z,0.68
2023-01-27T23:15:26.791Z,0.66
2023-01-27T23:17:54.362Z,0.66
2023-01-27T23:20:23.267Z,0.68
2023-01-27T23:22:51.126Z,0.68
2023-01-27T23:25:18.873Z,0.65
2023-01-27T23:27:46.383Z,0.65
2023-01-27T23:30:14.715Z,0.65
2023-01-27T23:32:42.302Z,0.68
2023-01-27T23:35:10.565Z,0.72
2023-01-27T23:37:39.460Z,0.74
2023-01-27T23:40:08.423Z,0.73
2023-01-27T23:42:35.978Z,0.71
2023-01-27T23:45:03.656Z,0.69
2023-01-27T23:47:31.345Z,0.67
2023-01-27T23:49:58.897Z,0.67
2023-01-27T23:52:26.544Z,0.66
2023-01-27T23:54:55.387Z,0.66
2023-01-27T23:57:22.871Z,0.65
2023-01-27T23:59:50.391Z,0.64
